Terminal Aerodrome Forecast
Issued by NWS

Current Version | Previous Version | Text Only | Print | Product List | Glossary Off
Versions: 1 2 3 4 5 6 7 8 9 10 11 12 13 14 15 16 17 18 19 20 21 22 23 24 25 26

000
FTUS41 KILN 200256 AAB
TAFLCK
TAF AMD
KLCK 200256Z 2003/2024 03005KT P6SM OVC007
     FM201300 09006KT P6SM VCSH BKN040
     FM201800 14006KT P6SM BKN060
     FM202000 14006KT P6SM VCTS BKN080CB=

USA.gov is the U.S. government's official web portal to all federal, state and local government web resources and services.